createdAt,value
2022-11-29T00:01:59.666Z,48.17
2022-11-29T00:04:29.861Z,53.43
2022-11-29T00:06:59.131Z,44.00
2022-11-29T00:09:28.385Z,49.60
2022-11-29T00:12:15.270Z,52.93
2022-11-29T00:14:45.623Z,55.13
2022-11-29T00:17:16.491Z,54.67
2022-11-29T00:19:47.155Z,55.27
2022-11-29T00:22:16.830Z,62.83
2022-11-29T00:24:47.616Z,50.50
2022-11-29T00:27:18.680Z,52.00
2022-11-29T00:29:48.329Z,57.20
2022-11-29T00:32:18.376Z,61.13
2022-11-29T00:34:48.360Z,62.17
2022-11-29T00:37:18.364Z,58.90
2022-11-29T00:39:48.000Z,59.10
2022-11-29T00:42:19.041Z,58.20
2022-11-29T00:44:48.965Z,63.43
2022-11-29T00:47:18.570Z,59.57
2022-11-29T00:49:48.202Z,61.83
2022-11-29T00:52:18.036Z,59.77
2022-11-29T00:54:47.951Z,58.47
2022-11-29T00:57:19.044Z,61.73
2022-11-29T00:59:48.750Z,48.80
2022-11-29T01:02:18.740Z,58.90
2022-11-29T01:04:48.915Z,53.60
2022-11-29T01:07:19.045Z,55.00
2022-11-29T01:09:48.830Z,50.47
2022-11-29T01:12:20.430Z,57.77
2022-11-29T01:14:50.375Z,57.60
2022-11-29T01:17:21.145Z,58.80
2022-11-29T01:19:51.247Z,58.87
2022-11-29T01:22:21.214Z,59.10
2022-11-29T01:24:51.011Z,52.10
2022-11-29T01:27:25.277Z,54.50
2022-11-29T01:29:55.005Z,59.40
2022-11-29T01:32:24.831Z,57.30
2022-11-29T01:34:54.540Z,60.30
2022-11-29T01:37:23.756Z,56.73
2022-11-29T01:39:53.110Z,62.00
2022-11-29T01:42:24.155Z,53.27
2022-11-29T01:45:08.040Z,56.93
2022-11-29T01:47:42.727Z,59.73
2022-11-29T01:50:13.358Z,58.00
2022-11-29T01:52:43.645Z,56.53
2022-11-29T01:55:13.705Z,52.40
2022-11-29T01:57:46.209Z,55.93
2022-11-29T02:00:19.168Z,54.90
2022-11-29T02:02:53.845Z,56.80
2022-11-29T02:05:23.955Z,57.30
2022-11-29T02:07:55.344Z,57.20
2022-11-29T02:10:31.778Z,58.63
2022-11-29T02:13:10.453Z,51.13
2022-11-29T02:15:47.644Z,53.10
2022-11-29T02:18:21.721Z,53.63
2022-11-29T02:21:20.080Z,57.97
2022-11-29T02:24:31.581Z,58.97
2022-11-29T02:27:24.350Z,61.00
2022-11-29T02:30:20.607Z,53.30
2022-11-29T02:33:29.593Z,55.00
2022-11-29T02:36:19.256Z,53.37
2022-11-29T02:39:09.835Z,57.23
2022-11-29T02:41:53.715Z,52.20
2022-11-29T02:44:55.470Z,53.13
2022-11-29T02:47:33.517Z,54.57
2022-11-29T02:50:20.341Z,56.83
2022-11-29T02:52:58.710Z,52.57
2022-11-29T02:55:35.994Z,55.93
2022-11-29T02:58:15.775Z,55.13
2022-11-29T03:00:52.970Z,65.63
2022-11-29T03:03:26.896Z,55.40
2022-11-29T03:06:05.018Z,56.60
2022-11-29T03:08:39.404Z,58.93
2022-11-29T03:11:19.286Z,53.60
2022-11-29T03:14:05.452Z,53.20
2022-11-29T03:16:43.551Z,49.33
2022-11-29T03:19:33.010Z,57.57
2022-11-29T03:22:12.929Z,55.53
2022-11-29T03:24:50.280Z,48.67
2022-11-29T03:27:23.295Z,55.00
2022-11-29T03:29:58.063Z,58.37
2022-11-29T03:32:32.945Z,63.07
2022-11-29T03:35:07.611Z,56.30
2022-11-29T03:37:47.285Z,73.33
2022-11-29T03:40:21.895Z,58.90
2022-11-29T03:42:54.615Z,59.20
2022-11-29T03:45:29.186Z,54.83
2022-11-29T03:48:03.814Z,68.83
2022-11-29T03:50:38.264Z,55.10
2022-11-29T03:53:19.625Z,66.37
2022-11-29T03:55:54.670Z,55.10
2022-11-29T03:58:43.531Z,69.00
2022-11-29T04:01:48.798Z,60.53
2022-11-29T04:04:49.867Z,52.07
2022-11-29T04:07:44.407Z,52.23
2022-11-29T04:10:22.570Z,52.87
2022-11-29T04:13:15.480Z,51.60
2022-11-29T04:16:20.779Z,48.07
2022-11-29T04:19:15.431Z,55.47
2022-11-29T04:22:24.279Z,59.37
2022-11-29T04:25:22.259Z,58.80
2022-11-29T04:28:38.589Z,50.80
2022-11-29T04:31:16.912Z,50.50
2022-11-29T04:34:07.965Z,50.70
2022-11-29T04:37:16.250Z,50.40
2022-11-29T04:39:59.741Z,56.90
2022-11-29T04:42:54.147Z,50.27
2022-11-29T04:45:49.390Z,57.07
2022-11-29T04:48:37.756Z,46.80
2022-11-29T04:51:17.250Z,58.90
2022-11-29T04:53:57.609Z,53.60
2022-11-29T04:56:34.706Z,54.13
2022-11-29T04:59:11.945Z,63.83
2022-11-29T05:01:52.420Z,67.27
2022-11-29T05:04:25.167Z,56.13
2022-11-29T05:07:03.505Z,55.40
2022-11-29T05:09:46.590Z,51.90
2022-11-29T05:12:21.014Z,57.33
2022-11-29T05:15:15.423Z,55.97
2022-11-29T05:17:56.859Z,60.60
2022-11-29T05:20:40.066Z,52.57
2022-11-29T05:23:31.265Z,52.73
2022-11-29T05:26:06.231Z,53.47
2022-11-29T05:28:43.947Z,54.73
2022-11-29T05:31:31.279Z,51.37
2022-11-29T05:34:30.283Z,54.10
2022-11-29T05:37:08.946Z,48.97
2022-11-29T05:39:51.124Z,47.67
2022-11-29T05:42:37.271Z,55.33
2022-11-29T05:45:11.700Z,53.30
2022-11-29T05:47:48.529Z,62.67
2022-11-29T05:50:25.080Z,46.97
2022-11-29T05:52:59.416Z,61.97
2022-11-29T05:55:51.485Z,63.57
2022-11-29T05:58:30.605Z,55.33
2022-11-29T06:01:06.277Z,60.57
2022-11-29T06:03:40.766Z,59.73
2022-11-29T06:06:17.282Z,53.50
2022-11-29T06:08:52.153Z,55.47
2022-11-29T06:11:28.160Z,68.73
2022-11-29T06:14:06.300Z,60.10
2022-11-29T06:16:52.741Z,57.50
2022-11-29T06:19:49.640Z,60.23
2022-11-29T06:22:45.177Z,60.50
2022-11-29T06:25:27.283Z,50.67
2022-11-29T06:28:09.674Z,52.90
2022-11-29T06:30:50.691Z,53.93
2022-11-29T06:33:24.670Z,53.17
2022-11-29T06:36:09.449Z,54.23
2022-11-29T06:38:40.455Z,51.30
2022-11-29T06:41:16.421Z,56.87
2022-11-29T06:43:46.271Z,52.07
2022-11-29T06:46:22.829Z,58.23
2022-11-29T06:49:02.314Z,57.03
2022-11-29T06:51:38.054Z,50.23
2022-11-29T06:54:20.768Z,54.23
2022-11-29T06:56:59.674Z,48.73
2022-11-29T06:59:39.605Z,49.93
2022-11-29T07:02:23.523Z,42.53
2022-11-29T07:05:03.561Z,52.50
2022-11-29T07:07:36.380Z,48.90
2022-11-29T07:10:12.041Z,50.67
2022-11-29T07:12:45.684Z,41.63
2022-11-29T07:15:21.045Z,47.13
2022-11-29T07:18:01.464Z,46.13
2022-11-29T07:20:35.911Z,41.80
2022-11-29T07:23:13.961Z,49.33
2022-11-29T07:25:53.605Z,43.33
2022-11-29T07:28:32.086Z,47.00
2022-11-29T07:31:10.441Z,51.17
2022-11-29T07:33:47.275Z,45.80
2022-11-29T07:36:23.375Z,46.27
2022-11-29T07:39:01.132Z,48.43
2022-11-29T07:41:36.015Z,42.43
2022-11-29T07:44:12.464Z,45.27
2022-11-29T07:46:42.444Z,60.90
2022-11-29T07:49:12.622Z,47.23
2022-11-29T07:51:42.435Z,45.50
2022-11-29T07:54:50.777Z,41.87
2022-11-29T07:57:20.474Z,51.73
2022-11-29T07:59:50.520Z,44.83
2022-11-29T08:02:29.040Z,46.47
2022-11-29T08:04:59.417Z,47.53
2022-11-29T08:07:29.614Z,42.20
2022-11-29T08:10:01.590Z,39.67
2022-11-29T08:12:31.725Z,45.07
2022-11-29T08:15:01.440Z,47.03
2022-11-29T08:17:31.240Z,45.10
2022-11-29T08:20:04.185Z,41.33
2022-11-29T08:22:34.310Z,44.07
2022-11-29T08:25:06.428Z,43.47
2022-11-29T08:27:37.035Z,39.53
2022-11-29T08:30:07.893Z,34.37
2022-11-29T08:32:37.645Z,38.87
2022-11-29T08:35:07.521Z,45.10
2022-11-29T08:37:37.441Z,40.53
2022-11-29T08:40:11.412Z,45.27
2022-11-29T08:42:41.261Z,44.20
2022-11-29T08:45:12.296Z,44.93
2022-11-29T08:47:43.300Z,38.47
2022-11-29T08:50:15.856Z,42.67
2022-11-29T08:53:03.866Z,54.17
2022-11-29T08:55:36.936Z,42.70
2022-11-29T08:58:08.294Z,41.67
2022-11-29T09:00:38.498Z,39.60
2022-11-29T09:03:26.452Z,48.83
2022-11-29T09:05:56.351Z,44.63
2022-11-29T09:08:26.152Z,42.30
2022-11-29T09:10:57.220Z,42.93
2022-11-29T09:13:26.822Z,45.60
2022-11-29T09:15:57.886Z,39.47
2022-11-29T09:18:28.886Z,42.57
2022-11-29T09:21:00.236Z,39.70
2022-11-29T09:23:30.037Z,50.30
2022-11-29T09:26:01.591Z,43.07
2022-11-29T09:28:31.895Z,48.80
2022-11-29T09:31:07.355Z,41.53
2022-11-29T09:33:37.811Z,49.10
2022-11-29T09:36:10.280Z,41.93
2022-11-29T09:38:40.132Z,45.53
2022-11-29T09:41:37.940Z,39.27
2022-11-29T09:44:15.265Z,52.47
2022-11-29T09:46:58.367Z,48.97
2022-11-29T09:49:42.437Z,40.80
2022-11-29T09:52:18.380Z,40.00
2022-11-29T09:54:55.801Z,48.70
2022-11-29T09:57:27.970Z,44.87
2022-11-29T10:00:03.377Z,48.67
2022-11-29T10:02:38.575Z,42.30
2022-11-29T10:05:14.945Z,48.40
2022-11-29T10:07:48.220Z,47.50
2022-11-29T10:10:22.401Z,39.93
2022-11-29T10:12:56.942Z,46.50
2022-11-29T10:15:29.724Z,44.00
2022-11-29T10:18:03.389Z,50.23
2022-11-29T10:20:40.523Z,43.60
2022-11-29T10:23:17.622Z,51.90
2022-11-29T10:25:50.049Z,47.77
2022-11-29T10:28:23.460Z,42.00
2022-11-29T10:30:56.476Z,40.47
2022-11-29T10:33:28.715Z,42.00
2022-11-29T10:36:00.310Z,44.23
2022-11-29T10:38:31.517Z,43.43
2022-11-29T10:41:05.800Z,44.37
2022-11-29T10:43:39.474Z,46.70
2022-11-29T10:46:14.229Z,39.93
2022-11-29T10:48:44.206Z,41.90
2022-11-29T10:51:18.710Z,41.00
2022-11-29T10:53:48.595Z,38.03
2022-11-29T10:56:24.439Z,42.07
2022-11-29T10:59:06.375Z,39.17
2022-11-29T11:01:38.626Z,44.37
2022-11-29T11:04:11.559Z,42.10
2022-11-29T11:06:47.899Z,42.77
2022-11-29T11:09:23.100Z,36.30
2022-11-29T11:11:54.446Z,46.90
2022-11-29T11:14:27.993Z,38.03
2022-11-29T11:16:57.753Z,40.07
2022-11-29T11:19:32.516Z,40.80
2022-11-29T11:22:04.215Z,41.50
2022-11-29T11:24:36.594Z,44.97
2022-11-29T11:27:06.595Z,40.30
2022-11-29T11:29:41.074Z,40.87
2022-11-29T11:32:18.635Z,38.57
2022-11-29T11:34:54.535Z,36.30
2022-11-29T11:37:27.321Z,40.87
2022-11-29T11:39:58.598Z,34.10
2022-11-29T11:42:39.427Z,35.90
2022-11-29T11:45:29.161Z,35.27
2022-11-29T11:48:02.511Z,37.77
2022-11-29T11:50:35.730Z,39.47
2022-11-29T11:53:08.525Z,37.87
2022-11-29T11:55:40.899Z,34.17
2022-11-29T11:58:19.601Z,36.90
2022-11-29T12:01:03.919Z,36.00
2022-11-29T12:03:49.558Z,34.27
2022-11-29T12:06:29.899Z,33.70
2022-11-29T12:09:05.441Z,32.40
2022-11-29T12:11:49.476Z,40.10
2022-11-29T12:14:27.275Z,38.73
2022-11-29T12:17:08.293Z,41.43
2022-11-29T12:19:45.957Z,39.33
2022-11-29T12:22:19.819Z,37.13
2022-11-29T12:24:55.830Z,40.33
2022-11-29T12:27:25.615Z,37.43
2022-11-29T12:29:55.511Z,32.53
2022-11-29T12:32:37.623Z,31.70
2022-11-29T12:35:36.139Z,40.67
2022-11-29T12:38:14.075Z,38.93
2022-11-29T12:40:48.766Z,38.60
2022-11-29T12:43:30.236Z,42.80
2022-11-29T12:46:05.343Z,37.80
2022-11-29T12:48:41.411Z,38.53
2022-11-29T12:51:17.835Z,35.37
2022-11-29T12:54:01.166Z,31.20
2022-11-29T12:56:38.680Z,39.60
2022-11-29T12:59:19.233Z,32.17
2022-11-29T13:02:07.024Z,36.50
2022-11-29T13:04:44.632Z,36.63
2022-11-29T13:07:23.528Z,33.73
2022-11-29T13:10:17.880Z,33.87
2022-11-29T13:12:50.806Z,31.67
2022-11-29T13:15:23.667Z,32.47
2022-11-29T13:17:58.939Z,41.13
2022-11-29T13:20:38.576Z,30.30
2022-11-29T13:23:16.336Z,33.77
2022-11-29T13:25:50.766Z,32.70
2022-11-29T13:28:24.632Z,33.20
2022-11-29T13:30:56.856Z,32.30
2022-11-29T13:33:32.076Z,31.63
2022-11-29T13:36:13.805Z,33.37
2022-11-29T13:38:50.837Z,30.40
2022-11-29T13:41:28.215Z,35.03
2022-11-29T13:44:02.467Z,34.37
2022-11-29T13:46:37.943Z,33.80
2022-11-29T13:49:07.677Z,30.13
2022-11-29T13:51:41.315Z,27.90
2022-11-29T13:54:30.444Z,30.50
2022-11-29T13:57:10.426Z,36.10
2022-11-29T13:59:47.487Z,32.17
2022-11-29T14:02:28.059Z,28.80
2022-11-29T14:04:57.976Z,22.67
2022-11-29T14:07:33.381Z,24.77
2022-11-29T14:10:05.453Z,26.80
2022-11-29T14:12:41.520Z,22.37
2022-11-29T14:15:33.846Z,25.57
2022-11-29T14:18:08.550Z,22.53
2022-11-29T14:20:54.933Z,23.03
2022-11-29T14:23:48.816Z,26.73
2022-11-29T14:26:28.781Z,23.70
2022-11-29T14:29:01.220Z,20.07
2022-11-29T14:31:51.966Z,23.70
2022-11-29T14:34:43.780Z,20.27
2022-11-29T14:37:31.941Z,24.97
2022-11-29T14:40:13.652Z,24.10
2022-11-29T14:43:06.180Z,25.83
2022-11-29T14:45:37.165Z,29.03
2022-11-29T14:48:07.186Z,23.57
2022-11-29T14:50:38.930Z,23.87
2022-11-29T14:53:26.091Z,27.07
2022-11-29T14:56:38.971Z,24.73
2022-11-29T14:59:43.560Z,23.57
2022-11-29T15:02:28.697Z,23.73
2022-11-29T15:04:59.712Z,27.90
2022-11-29T15:07:31.793Z,26.00
2022-11-29T15:10:04.755Z,24.70
2022-11-29T15:12:37.716Z,24.20
2022-11-29T15:15:26.026Z,29.13
2022-11-29T15:18:01.417Z,29.17
2022-11-29T15:20:55.092Z,25.40
2022-11-29T15:23:24.714Z,24.57
2022-11-29T15:25:56.340Z,25.57
2022-11-29T15:28:26.864Z,26.50
2022-11-29T15:31:07.192Z,29.83
2022-11-29T15:33:40.805Z,26.50
2022-11-29T15:36:13.897Z,27.90
2022-11-29T15:38:45.585Z,27.53
2022-11-29T15:41:23.495Z,28.40
2022-11-29T15:43:55.882Z,28.70
2022-11-29T15:46:28.900Z,28.97
2022-11-29T15:49:17.030Z,28.43
2022-11-29T15:51:47.551Z,34.43
2022-11-29T15:54:22.124Z,26.13
2022-11-29T15:56:53.227Z,25.07
2022-11-29T15:59:30.709Z,31.13
2022-11-29T16:02:04.061Z,30.43
2022-11-29T16:04:33.820Z,26.03
2022-11-29T16:07:05.751Z,28.47
2022-11-29T16:09:37.600Z,27.20
2022-11-29T16:12:11.926Z,26.57
2022-11-29T16:14:51.776Z,26.00
2022-11-29T16:17:22.970Z,27.13
2022-11-29T16:19:52.624Z,23.40
2022-11-29T16:22:25.065Z,27.77
2022-11-29T16:25:05.344Z,27.13
2022-11-29T16:27:36.521Z,25.63
2022-11-29T16:30:08.869Z,28.40
2022-11-29T16:32:44.624Z,28.63
2022-11-29T16:35:16.665Z,26.63
2022-11-29T16:37:47.365Z,29.95
2022-11-29T16:40:25.490Z,26.73
2022-11-29T16:43:23.532Z,27.60
2022-11-29T16:46:35.376Z,30.07
2022-11-29T16:49:35.017Z,30.93
2022-11-29T16:52:22.495Z,32.37
2022-11-29T16:54:53.239Z,28.27
2022-11-29T16:57:23.067Z,26.13
2022-11-29T16:59:53.771Z,28.27
2022-11-29T17:02:23.661Z,31.23
2022-11-29T17:04:56.630Z,28.50
2022-11-29T17:07:30.814Z,28.30
2022-11-29T17:10:01.139Z,31.73
2022-11-29T17:12:31.375Z,26.53
2022-11-29T17:15:01.650Z,27.13
2022-11-29T17:17:31.666Z,24.43
2022-11-29T17:20:02.430Z,25.27
2022-11-29T17:22:32.240Z,28.80
2022-11-29T17:25:01.924Z,30.43
2022-11-29T17:27:31.700Z,28.80
2022-11-29T17:30:01.488Z,30.87
2022-11-29T17:32:31.505Z,29.07
2022-11-29T17:35:02.865Z,31.40
2022-11-29T17:37:32.711Z,35.07
2022-11-29T17:40:02.321Z,29.33
2022-11-29T17:42:32.010Z,31.43
2022-11-29T17:45:01.751Z,33.17
2022-11-29T17:47:31.736Z,30.87
2022-11-29T17:50:02.997Z,31.57
2022-11-29T17:52:32.602Z,34.50
2022-11-29T17:55:02.397Z,34.70
2022-11-29T17:57:32.146Z,29.53
2022-11-29T18:00:04.555Z,32.87
2022-11-29T18:02:34.211Z,33.53
2022-11-29T18:05:05.842Z,30.43
2022-11-29T18:07:56.374Z,30.90
2022-11-29T18:10:26.430Z,32.23
2022-11-29T18:12:56.175Z,28.17
2022-11-29T18:15:25.884Z,28.63
2022-11-29T18:17:55.431Z,32.40
2022-11-29T18:20:26.606Z,29.50
2022-11-29T18:22:56.639Z,32.73
2022-11-29T18:25:41.625Z,32.47
2022-11-29T18:28:11.576Z,30.80
2022-11-29T18:30:41.154Z,30.93
2022-11-29T18:33:10.853Z,29.70
2022-11-29T18:35:41.871Z,28.07
2022-11-29T18:38:16.119Z,27.40
2022-11-29T18:40:47.226Z,30.10
2022-11-29T18:43:18.771Z,27.77
2022-11-29T18:45:48.377Z,25.20
2022-11-29T18:48:18.065Z,31.97
2022-11-29T18:50:49.371Z,31.20
2022-11-29T18:53:18.962Z,33.63
2022-11-29T18:55:49.046Z,27.90
2022-11-29T18:58:18.597Z,29.63
2022-11-29T19:00:48.140Z,33.83
2022-11-29T19:03:17.680Z,37.80
2022-11-29T19:05:54.659Z,36.20
2022-11-29T19:08:25.794Z,33.33
2022-11-29T19:10:55.569Z,37.13
2022-11-29T19:13:26.962Z,34.47
2022-11-29T19:15:57.446Z,34.23
2022-11-29T19:18:26.851Z,32.47
2022-11-29T19:21:06.612Z,32.80
2022-11-29T19:23:38.550Z,33.33
2022-11-29T19:26:11.706Z,36.33
2022-11-29T19:28:43.094Z,30.33
2022-11-29T19:31:13.894Z,29.17
2022-11-29T19:33:46.347Z,32.80
2022-11-29T19:36:19.798Z,34.33
2022-11-29T19:38:53.403Z,29.23
2022-11-29T19:41:25.567Z,31.67
2022-11-29T19:43:57.396Z,31.50
2022-11-29T19:46:28.899Z,32.87
2022-11-29T19:49:00.970Z,36.10
2022-11-29T19:51:32.978Z,34.70
2022-11-29T19:54:05.300Z,27.40
2022-11-29T19:56:36.002Z,31.73
2022-11-29T19:59:07.371Z,30.53
2022-11-29T20:01:41.531Z,32.30
2022-11-29T20:04:13.329Z,34.47
2022-11-29T20:06:45.935Z,32.80
2022-11-29T20:09:17.167Z,31.83
2022-11-29T20:11:47.902Z,39.57
2022-11-29T20:14:18.395Z,45.83
2022-11-29T20:16:48.975Z,41.87
2022-11-29T20:19:19.825Z,36.17
2022-11-29T20:21:51.820Z,39.10
2022-11-29T20:24:21.675Z,40.40
2022-11-29T20:26:52.124Z,40.30
2022-11-29T20:29:27.533Z,38.27
2022-11-29T20:31:57.400Z,33.30
2022-11-29T20:34:27.678Z,35.20
2022-11-29T20:37:14.330Z,37.77
2022-11-29T20:39:50.631Z,29.77
2022-11-29T20:42:56.699Z,31.20
2022-11-29T20:45:27.380Z,32.80
2022-11-29T20:48:00.347Z,33.00
2022-11-29T20:50:33.970Z,32.17
2022-11-29T20:53:14.696Z,31.90
2022-11-29T20:55:47.946Z,28.83
2022-11-29T20:58:19.636Z,29.50
2022-11-29T21:00:49.511Z,35.30
2022-11-29T21:03:20.117Z,27.37
2022-11-29T21:05:51.428Z,28.50
2022-11-29T21:08:24.060Z,33.30
2022-11-29T21:10:55.399Z,38.27
2022-11-29T21:13:25.965Z,29.50
2022-11-29T21:15:56.289Z,33.37
2022-11-29T21:18:27.910Z,32.33
2022-11-29T21:21:10.440Z,33.93
2022-11-29T21:24:10.685Z,34.30
2022-11-29T21:26:43.289Z,34.67
2022-11-29T21:29:18.657Z,33.67
2022-11-29T21:31:50.859Z,29.07
2022-11-29T21:34:20.848Z,34.87
2022-11-29T21:36:54.817Z,29.10
2022-11-29T21:39:32.311Z,28.83
2022-11-29T21:42:02.016Z,33.77
2022-11-29T21:44:32.533Z,25.77
2022-11-29T21:47:02.140Z,33.90
2022-11-29T21:49:31.825Z,30.93
2022-11-29T21:52:01.941Z,29.70
2022-11-29T21:54:33.334Z,33.27
2022-11-29T21:57:03.891Z,28.30
2022-11-29T21:59:33.906Z,29.67
2022-11-29T22:02:04.211Z,29.57
2022-11-29T22:04:34.171Z,28.57
2022-11-29T22:07:03.912Z,29.27
2022-11-29T22:09:35.396Z,30.23
2022-11-29T22:12:25.800Z,34.27
2022-11-29T22:14:55.775Z,27.70
2022-11-29T22:17:25.645Z,30.60
2022-11-29T22:19:55.640Z,34.00
2022-11-29T22:22:28.050Z,26.50
2022-11-29T22:24:59.962Z,29.27
2022-11-29T22:27:29.876Z,29.73
2022-11-29T22:29:59.988Z,30.67
2022-11-29T22:32:29.650Z,31.50
2022-11-29T22:34:59.906Z,29.53
2022-11-29T22:37:31.526Z,28.60
2022-11-29T22:40:03.966Z,23.77
2022-11-29T22:42:33.965Z,29.30
2022-11-29T22:45:04.946Z,28.90
2022-11-29T22:47:34.561Z,29.10
2022-11-29T22:50:04.171Z,26.83
2022-11-29T22:52:33.593Z,25.77
2022-11-29T22:55:05.202Z,28.63
2022-11-29T22:57:35.565Z,25.87
2022-11-29T23:00:09.451Z,27.23
2022-11-29T23:02:39.206Z,28.60
2022-11-29T23:05:09.058Z,25.23
2022-11-29T23:07:39.186Z,30.83
2022-11-29T23:10:14.900Z,30.23
2022-11-29T23:12:44.731Z,28.07
2022-11-29T23:15:14.675Z,26.13
2022-11-29T23:17:44.856Z,31.63
2022-11-29T23:20:15.035Z,33.00
2022-11-29T23:22:44.736Z,27.93
2022-11-29T23:25:15.815Z,28.90
2022-11-29T23:27:47.634Z,31.37
2022-11-29T23:30:17.976Z,28.17
2022-11-29T23:32:47.995Z,27.57
2022-11-29T23:35:17.795Z,31.40
2022-11-29T23:37:47.501Z,30.43
2022-11-29T23:40:19.132Z,28.53
2022-11-29T23:42:53.072Z,32.97
2022-11-29T23:45:22.825Z,32.97
2022-11-29T23:47:52.425Z,32.47
2022-11-29T23:50:21.966Z,37.57
2022-11-29T23:52:55.260Z,32.67
2022-11-29T23:55:27.200Z,30.17
2022-11-29T23:57:57.420Z,26.73
